sensor_id;sensor_type;location;lat;lon;timestamp;P1;durP1;ratioP1;P2;durP2;ratioP2
76351;SDS011;65179;47.786;19.138;2023-04-03T00:00:45;6.80;;;3.43;;
76351;SDS011;65179;47.786;19.138;2023-04-03T00:03:10;7.47;;;3.23;;
76351;SDS011;65179;47.786;19.138;2023-04-03T00:05:36;6.37;;;3.35;;
76351;SDS011;65179;47.786;19.138;2023-04-03T00:08:01;7.27;;;3.67;;
76351;SDS011;65179;47.786;19.138;2023-04-03T00:10:27;6.27;;;3.20;;
76351;SDS011;65179;47.786;19.138;2023-04-03T00:12:53;6.55;;;3.30;;
76351;SDS011;65179;47.786;19.138;2023-04-03T00:15:19;7.53;;;4.37;;
76351;SDS011;65179;47.786;19.138;2023-04-03T00:17:44;6.70;;;3.20;;
76351;SDS011;65179;47.786;19.138;2023-04-03T00:20:10;6.75;;;3.10;;
76351;SDS011;65179;47.786;19.138;2023-04-03T00:22:36;6.73;;;3.10;;
76351;SDS011;65179;47.786;19.138;2023-04-03T00:25:01;6.03;;;3.30;;
76351;SDS011;65179;47.786;19.138;2023-04-03T00:27:27;6.40;;;3.42;;
76351;SDS011;65179;47.786;19.138;2023-04-03T00:29:53;6.53;;;3.57;;
76351;SDS011;65179;47.786;19.138;2023-04-03T00:32:18;7.30;;;3.67;;
76351;SDS011;65179;47.786;19.138;2023-04-03T00:34:44;6.45;;;3.47;;
76351;SDS011;65179;47.786;19.138;2023-04-03T00:37:09;6.93;;;3.37;;
76351;SDS011;65179;47.786;19.138;2023-04-03T00:39:35;6.47;;;3.43;;
76351;SDS011;65179;47.786;19.138;2023-04-03T00:42:00;6.90;;;3.50;;
76351;SDS011;65179;47.786;19.138;2023-04-03T00:46:57;7.05;;;3.35;;
76351;SDS011;65179;47.786;19.138;2023-04-03T00:49:23;5.93;;;3.30;;
76351;SDS011;65179;47.786;19.138;2023-04-03T00:51:48;6.67;;;3.63;;
76351;SDS011;65179;47.786;19.138;2023-04-03T00:54:14;7.62;;;3.33;;
76351;SDS011;65179;47.786;19.138;2023-04-03T00:56:40;6.43;;;2.97;;
76351;SDS011;65179;47.786;19.138;2023-04-03T00:59:08;6.60;;;3.67;;
76351;SDS011;65179;47.786;19.138;2023-04-03T01:01:37;6.85;;;3.40;;
76351;SDS011;65179;47.786;19.138;2023-04-03T01:04:03;7.95;;;3.50;;
76351;SDS011;65179;47.786;19.138;2023-04-03T01:06:32;6.93;;;3.37;;
76351;SDS011;65179;47.786;19.138;2023-04-03T01:09:00;6.10;;;3.30;;
76351;SDS011;65179;47.786;19.138;2023-04-03T01:11:26;5.20;;;2.62;;
76351;SDS011;65179;47.786;19.138;2023-04-03T01:13:52;6.30;;;3.08;;
76351;SDS011;65179;47.786;19.138;2023-04-03T01:16:18;7.50;;;3.45;;
76351;SDS011;65179;47.786;19.138;2023-04-03T01:18:44;7.32;;;3.50;;
76351;SDS011;65179;47.786;19.138;2023-04-03T01:26:04;6.43;;;3.47;;
76351;SDS011;65179;47.786;19.138;2023-04-03T01:28:32;6.47;;;3.37;;
76351;SDS011;65179;47.786;19.138;2023-04-03T01:31:06;6.53;;;3.20;;
76351;SDS011;65179;47.786;19.138;2023-04-03T01:33:54;5.35;;;2.72;;
76351;SDS011;65179;47.786;19.138;2023-04-03T01:36:22;5.20;;;2.67;;
76351;SDS011;65179;47.786;19.138;2023-04-03T01:38:50;5.65;;;2.78;;
76351;SDS011;65179;47.786;19.138;2023-04-03T01:41:16;5.03;;;2.83;;
76351;SDS011;65179;47.786;19.138;2023-04-03T01:43:42;4.77;;;2.50;;
76351;SDS011;65179;47.786;19.138;2023-04-03T01:46:08;5.78;;;2.90;;
76351;SDS011;65179;47.786;19.138;2023-04-03T01:48:33;6.33;;;2.70;;
76351;SDS011;65179;47.786;19.138;2023-04-03T01:50:59;5.32;;;2.50;;
76351;SDS011;65179;47.786;19.138;2023-04-03T01:53:25;5.27;;;2.77;;
76351;SDS011;65179;47.786;19.138;2023-04-03T01:55:50;5.70;;;2.50;;
76351;SDS011;65179;47.786;19.138;2023-04-03T01:58:16;5.43;;;2.60;;
76351;SDS011;65179;47.786;19.138;2023-04-03T02:00:41;5.87;;;3.27;;
76351;SDS011;65179;47.786;19.138;2023-04-03T02:03:07;5.30;;;2.80;;
76351;SDS011;65179;47.786;19.138;2023-04-03T02:05:32;6.00;;;2.70;;
76351;SDS011;65179;47.786;19.138;2023-04-03T02:07:58;5.40;;;3.20;;
76351;SDS011;65179;47.786;19.138;2023-04-03T02:10:23;6.70;;;3.20;;
76351;SDS011;65179;47.786;19.138;2023-04-03T02:12:49;6.50;;;3.20;;
76351;SDS011;65179;47.786;19.138;2023-04-03T02:15:15;6.28;;;2.90;;
76351;SDS011;65179;47.786;19.138;2023-04-03T02:17:41;5.57;;;3.07;;
76351;SDS011;65179;47.786;19.138;2023-04-03T02:20:06;7.10;;;3.28;;
76351;SDS011;65179;47.786;19.138;2023-04-03T02:22:33;6.13;;;3.00;;
76351;SDS011;65179;47.786;19.138;2023-04-03T02:24:58;5.37;;;2.80;;
76351;SDS011;65179;47.786;19.138;2023-04-03T02:27:24;5.60;;;2.93;;
76351;SDS011;65179;47.786;19.138;2023-04-03T02:29:49;6.67;;;2.93;;
76351;SDS011;65179;47.786;19.138;2023-04-03T02:32:15;6.28;;;3.33;;
76351;SDS011;65179;47.786;19.138;2023-04-03T02:34:40;6.47;;;3.10;;
76351;SDS011;65179;47.786;19.138;2023-04-03T02:37:06;6.13;;;2.90;;
76351;SDS011;65179;47.786;19.138;2023-04-03T02:39:31;5.83;;;2.93;;
76351;SDS011;65179;47.786;19.138;2023-04-03T02:41:56;8.20;;;3.03;;
76351;SDS011;65179;47.786;19.138;2023-04-03T02:44:22;6.07;;;3.10;;
76351;SDS011;65179;47.786;19.138;2023-04-03T02:46:48;6.10;;;3.10;;
76351;SDS011;65179;47.786;19.138;2023-04-03T02:49:14;5.85;;;3.15;;
76351;SDS011;65179;47.786;19.138;2023-04-03T02:51:40;6.28;;;3.10;;
76351;SDS011;65179;47.786;19.138;2023-04-03T02:54:06;6.47;;;3.33;;
76351;SDS011;65179;47.786;19.138;2023-04-03T02:56:31;6.03;;;3.17;;
76351;SDS011;65179;47.786;19.138;2023-04-03T02:58:57;6.10;;;2.97;;
76351;SDS011;65179;47.786;19.138;2023-04-03T03:01:22;6.03;;;3.20;;
76351;SDS011;65179;47.786;19.138;2023-04-03T03:03:48;6.40;;;3.42;;
76351;SDS011;65179;47.786;19.138;2023-04-03T03:06:14;6.70;;;3.30;;
76351;SDS011;65179;47.786;19.138;2023-04-03T03:08:41;5.12;;;2.90;;
76351;SDS011;65179;47.786;19.138;2023-04-03T03:11:07;6.77;;;3.30;;
76351;SDS011;65179;47.786;19.138;2023-04-03T03:13:33;5.68;;;2.78;;
76351;SDS011;65179;47.786;19.138;2023-04-03T03:15:59;5.80;;;3.20;;
76351;SDS011;65179;47.786;19.138;2023-04-03T03:18:24;5.60;;;2.92;;
76351;SDS011;65179;47.786;19.138;2023-04-03T03:20:51;5.82;;;2.70;;
76351;SDS011;65179;47.786;19.138;2023-04-03T03:23:17;5.83;;;2.60;;
76351;SDS011;65179;47.786;19.138;2023-04-03T03:25:43;5.28;;;2.75;;
76351;SDS011;65179;47.786;19.138;2023-04-03T03:28:08;5.43;;;2.80;;
76351;SDS011;65179;47.786;19.138;2023-04-03T03:30:34;5.70;;;2.63;;
76351;SDS011;65179;47.786;19.138;2023-04-03T03:33:00;5.72;;;3.00;;
76351;SDS011;65179;47.786;19.138;2023-04-03T03:35:25;5.20;;;2.60;;
76351;SDS011;65179;47.786;19.138;2023-04-03T03:37:51;5.45;;;2.70;;
76351;SDS011;65179;47.786;19.138;2023-04-03T03:40:16;5.28;;;2.92;;
76351;SDS011;65179;47.786;19.138;2023-04-03T03:42:42;6.67;;;2.70;;
76351;SDS011;65179;47.786;19.138;2023-04-03T03:45:07;5.97;;;3.10;;
76351;SDS011;65179;47.786;19.138;2023-04-03T03:47:33;6.40;;;3.30;;
76351;SDS011;65179;47.786;19.138;2023-04-03T03:49:59;6.40;;;3.03;;
76351;SDS011;65179;47.786;19.138;2023-04-03T03:52:25;5.82;;;3.00;;
76351;SDS011;65179;47.786;19.138;2023-04-03T03:54:51;5.93;;;2.70;;
76351;SDS011;65179;47.786;19.138;2023-04-03T03:57:16;5.87;;;2.90;;
76351;SDS011;65179;47.786;19.138;2023-04-03T03:59:42;6.00;;;3.07;;
76351;SDS011;65179;47.786;19.138;2023-04-03T04:02:08;5.12;;;2.75;;
76351;SDS011;65179;47.786;19.138;2023-04-03T04:04:34;5.00;;;2.70;;
76351;SDS011;65179;47.786;19.138;2023-04-03T04:06:59;5.03;;;2.57;;
76351;SDS011;65179;47.786;19.138;2023-04-03T04:09:28;5.62;;;3.00;;
76351;SDS011;65179;47.786;19.138;2023-04-03T04:11:53;6.17;;;3.03;;
76351;SDS011;65179;47.786;19.138;2023-04-03T04:14:19;6.57;;;3.10;;
76351;SDS011;65179;47.786;19.138;2023-04-03T04:16:45;5.68;;;2.95;;
76351;SDS011;65179;47.786;19.138;2023-04-03T04:19:12;5.40;;;2.83;;
76351;SDS011;65179;47.786;19.138;2023-04-03T04:21:38;5.47;;;2.80;;
76351;SDS011;65179;47.786;19.138;2023-04-03T04:24:04;5.47;;;2.80;;
76351;SDS011;65179;47.786;19.138;2023-04-03T04:26:30;6.90;;;3.20;;
76351;SDS011;65179;47.786;19.138;2023-04-03T04:28:55;6.50;;;2.63;;
76351;SDS011;65179;47.786;19.138;2023-04-03T04:31:21;5.40;;;2.83;;
76351;SDS011;65179;47.786;19.138;2023-04-03T04:33:46;6.30;;;3.03;;
76351;SDS011;65179;47.786;19.138;2023-04-03T04:36:12;5.57;;;3.00;;
76351;SDS011;65179;47.786;19.138;2023-04-03T04:38:37;5.30;;;2.80;;
76351;SDS011;65179;47.786;19.138;2023-04-03T04:41:03;6.70;;;3.00;;
76351;SDS011;65179;47.786;19.138;2023-04-03T04:43:29;5.90;;;2.65;;
76351;SDS011;65179;47.786;19.138;2023-04-03T04:46:01;4.85;;;2.30;;
76351;SDS011;65179;47.786;19.138;2023-04-03T04:48:28;6.28;;;2.97;;
76351;SDS011;65179;47.786;19.138;2023-04-03T04:50:53;6.77;;;3.13;;
76351;SDS011;65179;47.786;19.138;2023-04-03T04:53:19;7.47;;;3.30;;
76351;SDS011;65179;47.786;19.138;2023-04-03T04:55:44;6.25;;;2.70;;
76351;SDS011;65179;47.786;19.138;2023-04-03T04:58:10;5.45;;;2.60;;
76351;SDS011;65179;47.786;19.138;2023-04-03T05:00:35;5.40;;;2.70;;
76351;SDS011;65179;47.786;19.138;2023-04-03T05:03:00;5.97;;;2.40;;
76351;SDS011;65179;47.786;19.138;2023-04-03T05:05:26;6.67;;;3.07;;
76351;SDS011;65179;47.786;19.138;2023-04-03T05:07:51;6.65;;;3.00;;
76351;SDS011;65179;47.786;19.138;2023-04-03T05:10:17;6.27;;;2.80;;
76351;SDS011;65179;47.786;19.138;2023-04-03T05:12:42;6.13;;;3.03;;
76351;SDS011;65179;47.786;19.138;2023-04-03T05:15:08;6.17;;;3.13;;
76351;SDS011;65179;47.786;19.138;2023-04-03T05:17:33;7.62;;;3.15;;
76351;SDS011;65179;47.786;19.138;2023-04-03T05:19:59;6.87;;;3.40;;
76351;SDS011;65179;47.786;19.138;2023-04-03T05:22:24;7.43;;;3.27;;
76351;SDS011;65179;47.786;19.138;2023-04-03T05:24:50;6.72;;;3.42;;
76351;SDS011;65179;47.786;19.138;2023-04-03T05:27:15;6.35;;;3.10;;
76351;SDS011;65179;47.786;19.138;2023-04-03T05:29:41;5.78;;;2.85;;
76351;SDS011;65179;47.786;19.138;2023-04-03T05:32:08;6.30;;;2.90;;
76351;SDS011;65179;47.786;19.138;2023-04-03T05:34:35;6.95;;;3.05;;
76351;SDS011;65179;47.786;19.138;2023-04-03T05:37:01;6.20;;;3.20;;
76351;SDS011;65179;47.786;19.138;2023-04-03T05:39:28;5.12;;;2.72;;
76351;SDS011;65179;47.786;19.138;2023-04-03T05:41:53;5.40;;;2.80;;
76351;SDS011;65179;47.786;19.138;2023-04-03T05:44:19;6.47;;;3.37;;
76351;SDS011;65179;47.786;19.138;2023-04-03T05:46:44;5.70;;;2.67;;
76351;SDS011;65179;47.786;19.138;2023-04-03T05:49:10;6.33;;;3.10;;
76351;SDS011;65179;47.786;19.138;2023-04-03T05:51:36;5.53;;;2.65;;
76351;SDS011;65179;47.786;19.138;2023-04-03T05:54:24;5.30;;;2.73;;
76351;SDS011;65179;47.786;19.138;2023-04-03T05:56:52;5.85;;;2.78;;
76351;SDS011;65179;47.786;19.138;2023-04-03T05:59:18;5.70;;;2.62;;
76351;SDS011;65179;47.786;19.138;2023-04-03T06:01:44;5.72;;;2.62;;
76351;SDS011;65179;47.786;19.138;2023-04-03T06:04:10;8.10;;;2.95;;
76351;SDS011;65179;47.786;19.138;2023-04-03T06:06:49;4.43;;;1.93;;
76351;SDS011;65179;47.786;19.138;2023-04-03T06:09:17;5.80;;;2.08;;
76351;SDS011;65179;47.786;19.138;2023-04-03T06:11:44;5.45;;;2.30;;
76351;SDS011;65179;47.786;19.138;2023-04-03T06:14:09;4.47;;;1.80;;
76351;SDS011;65179;47.786;19.138;2023-04-03T06:16:36;5.22;;;1.92;;
76351;SDS011;65179;47.786;19.138;2023-04-03T06:19:02;4.50;;;1.77;;
76351;SDS011;65179;47.786;19.138;2023-04-03T06:21:27;8.20;;;1.92;;
76351;SDS011;65179;47.786;19.138;2023-04-03T06:23:53;6.27;;;1.70;;
76351;SDS011;65179;47.786;19.138;2023-04-03T06:26:18;4.87;;;1.40;;
76351;SDS011;65179;47.786;19.138;2023-04-03T06:28:44;3.97;;;1.58;;
76351;SDS011;65179;47.786;19.138;2023-04-03T06:31:09;3.43;;;1.47;;
76351;SDS011;65179;47.786;19.138;2023-04-03T06:33:35;4.27;;;1.87;;
76351;SDS011;65179;47.786;19.138;2023-04-03T06:36:03;3.90;;;1.80;;
76351;SDS011;65179;47.786;19.138;2023-04-03T06:38:31;4.97;;;1.23;;
76351;SDS011;65179;47.786;19.138;2023-04-03T06:40:58;3.75;;;1.40;;
76351;SDS011;65179;47.786;19.138;2023-04-03T06:43:23;4.22;;;1.77;;
76351;SDS011;65179;47.786;19.138;2023-04-03T06:45:49;5.23;;;1.30;;
76351;SDS011;65179;47.786;19.138;2023-04-03T06:48:15;3.83;;;1.30;;
76351;SDS011;65179;47.786;19.138;2023-04-03T06:50:41;3.20;;;1.10;;
76351;SDS011;65179;47.786;19.138;2023-04-03T06:53:07;3.07;;;1.10;;
76351;SDS011;65179;47.786;19.138;2023-04-03T06:55:33;3.42;;;1.10;;
76351;SDS011;65179;47.786;19.138;2023-04-03T06:57:58;2.90;;;1.20;;
76351;SDS011;65179;47.786;19.138;2023-04-03T07:00:24;3.03;;;1.00;;
76351;SDS011;65179;47.786;19.138;2023-04-03T07:02:49;4.17;;;1.00;;
76351;SDS011;65179;47.786;19.138;2023-04-03T07:05:15;3.42;;;1.12;;
76351;SDS011;65179;47.786;19.138;2023-04-03T07:07:41;3.40;;;1.10;;
76351;SDS011;65179;47.786;19.138;2023-04-03T07:10:07;4.30;;;1.37;;
76351;SDS011;65179;47.786;19.138;2023-04-03T07:12:33;3.83;;;1.30;;
76351;SDS011;65179;47.786;19.138;2023-04-03T07:14:58;4.72;;;1.17;;
76351;SDS011;65179;47.786;19.138;2023-04-03T07:17:24;3.87;;;1.33;;
76351;SDS011;65179;47.786;19.138;2023-04-03T07:19:50;3.40;;;1.10;;
76351;SDS011;65179;47.786;19.138;2023-04-03T07:22:16;3.45;;;1.27;;
76351;SDS011;65179;47.786;19.138;2023-04-03T07:24:42;3.30;;;1.10;;
76351;SDS011;65179;47.786;19.138;2023-04-03T07:27:08;3.45;;;1.00;;
76351;SDS011;65179;47.786;19.138;2023-04-03T07:29:34;4.93;;;1.20;;
76351;SDS011;65179;47.786;19.138;2023-04-03T07:32:00;3.15;;;1.17;;
76351;SDS011;65179;47.786;19.138;2023-04-03T07:34:26;3.05;;;1.10;;
76351;SDS011;65179;47.786;19.138;2023-04-03T07:36:52;5.63;;;1.10;;
76351;SDS011;65179;47.786;19.138;2023-04-03T07:39:18;5.30;;;1.50;;
76351;SDS011;65179;47.786;19.138;2023-04-03T07:41:44;3.47;;;0.97;;
76351;SDS011;65179;47.786;19.138;2023-04-03T07:44:09;2.80;;;0.90;;
76351;SDS011;65179;47.786;19.138;2023-04-03T07:46:35;3.10;;;1.00;;
76351;SDS011;65179;47.786;19.138;2023-04-03T07:49:01;3.20;;;1.00;;
76351;SDS011;65179;47.786;19.138;2023-04-03T07:51:26;3.23;;;1.00;;
76351;SDS011;65179;47.786;19.138;2023-04-03T07:53:53;3.12;;;1.00;;
76351;SDS011;65179;47.786;19.138;2023-04-03T07:56:19;3.40;;;1.05;;
76351;SDS011;65179;47.786;19.138;2023-04-03T07:58:45;2.53;;;0.82;;
76351;SDS011;65179;47.786;19.138;2023-04-03T08:01:11;2.50;;;0.60;;
76351;SDS011;65179;47.786;19.138;2023-04-03T08:03:38;2.92;;;0.75;;
76351;SDS011;65179;47.786;19.138;2023-04-03T08:06:06;3.75;;;1.10;;
76351;SDS011;65179;47.786;19.138;2023-04-03T08:08:34;2.63;;;0.80;;
76351;SDS011;65179;47.786;19.138;2023-04-03T08:11:01;3.87;;;0.95;;
76351;SDS011;65179;47.786;19.138;2023-04-03T08:13:30;2.92;;;1.00;;
76351;SDS011;65179;47.786;19.138;2023-04-03T08:15:57;2.58;;;0.70;;
76351;SDS011;65179;47.786;19.138;2023-04-03T08:18:32;2.50;;;0.82;;
76351;SDS011;65179;47.786;19.138;2023-04-03T08:20:59;3.40;;;1.00;;
76351;SDS011;65179;47.786;19.138;2023-04-03T08:23:25;6.35;;;2.42;;
76351;SDS011;65179;47.786;19.138;2023-04-03T08:25:52;4.85;;;2.10;;
76351;SDS011;65179;47.786;19.138;2023-04-03T08:28:19;2.80;;;0.90;;
76351;SDS011;65179;47.786;19.138;2023-04-03T08:30:48;3.00;;;0.90;;
76351;SDS011;65179;47.786;19.138;2023-04-03T08:33:16;3.03;;;0.83;;
76351;SDS011;65179;47.786;19.138;2023-04-03T08:35:43;2.67;;;0.88;;
76351;SDS011;65179;47.786;19.138;2023-04-03T08:38:10;3.22;;;0.90;;
76351;SDS011;65179;47.786;19.138;2023-04-03T08:40:36;3.22;;;0.88;;
76351;SDS011;65179;47.786;19.138;2023-04-03T08:45:48;2.60;;;0.60;;
76351;SDS011;65179;47.786;19.138;2023-04-03T08:48:23;2.75;;;0.60;;
76351;SDS011;65179;47.786;19.138;2023-04-03T08:51:14;3.03;;;0.70;;
76351;SDS011;65179;47.786;19.138;2023-04-03T08:53:54;2.30;;;0.60;;
76351;SDS011;65179;47.786;19.138;2023-04-03T08:56:29;3.28;;;0.65;;
76351;SDS011;65179;47.786;19.138;2023-04-03T08:59:04;3.00;;;0.70;;
76351;SDS011;65179;47.786;19.138;2023-04-03T09:01:37;2.15;;;0.50;;
76351;SDS011;65179;47.786;19.138;2023-04-03T09:04:10;3.87;;;0.80;;
76351;SDS011;65179;47.786;19.138;2023-04-03T09:06:39;3.67;;;1.05;;
76351;SDS011;65179;47.786;19.138;2023-04-03T09:09:15;5.30;;;0.80;;
76351;SDS011;65179;47.786;19.138;2023-04-03T09:14:29;2.30;;;0.60;;
76351;SDS011;65179;47.786;19.138;2023-04-03T09:17:14;3.47;;;1.15;;
76351;SDS011;65179;47.786;19.138;2023-04-03T09:22:31;3.70;;;1.10;;
76351;SDS011;65179;47.786;19.138;2023-04-03T09:28:01;2.80;;;0.70;;
76351;SDS011;65179;47.786;19.138;2023-04-03T09:30:28;3.83;;;0.60;;
76351;SDS011;65179;47.786;19.138;2023-04-03T09:32:56;2.92;;;0.80;;
76351;SDS011;65179;47.786;19.138;2023-04-03T09:35:27;3.65;;;0.90;;
76351;SDS011;65179;47.786;19.138;2023-04-03T09:38:01;3.63;;;0.70;;
76351;SDS011;65179;47.786;19.138;2023-04-03T09:40:32;2.60;;;0.60;;
76351;SDS011;65179;47.786;19.138;2023-04-03T09:43:23;2.53;;;0.60;;
76351;SDS011;65179;47.786;19.138;2023-04-03T09:46:20;2.70;;;0.77;;
76351;SDS011;65179;47.786;19.138;2023-04-03T09:48:51;3.22;;;0.82;;
76351;SDS011;65179;47.786;19.138;2023-04-03T09:51:29;2.50;;;0.80;;
76351;SDS011;65179;47.786;19.138;2023-04-03T09:53:57;3.20;;;1.00;;
76351;SDS011;65179;47.786;19.138;2023-04-03T09:56:28;3.22;;;1.25;;
76351;SDS011;65179;47.786;19.138;2023-04-03T10:01:30;6.93;;;3.45;;
76351;SDS011;65179;47.786;19.138;2023-04-03T10:04:09;3.23;;;0.87;;
76351;SDS011;65179;47.786;19.138;2023-04-03T10:06:43;2.97;;;0.80;;
76351;SDS011;65179;47.786;19.138;2023-04-03T10:09:18;3.05;;;0.70;;
76351;SDS011;65179;47.786;19.138;2023-04-03T10:14:35;2.75;;;0.80;;
76351;SDS011;65179;47.786;19.138;2023-04-03T10:19:58;2.83;;;0.82;;
76351;SDS011;65179;47.786;19.138;2023-04-03T10:22:41;4.65;;;0.70;;
76351;SDS011;65179;47.786;19.138;2023-04-03T10:25:30;2.40;;;0.60;;
76351;SDS011;65179;47.786;19.138;2023-04-03T10:30:50;3.57;;;0.90;;
76351;SDS011;65179;47.786;19.138;2023-04-03T10:47:21;2.67;;;0.70;;
76351;SDS011;65179;47.786;19.138;2023-04-03T10:52:54;2.42;;;0.70;;
76351;SDS011;65179;47.786;19.138;2023-04-03T10:55:46;2.78;;;0.88;;
76351;SDS011;65179;47.786;19.138;2023-04-03T10:58:30;2.30;;;0.60;;
76351;SDS011;65179;47.786;19.138;2023-04-03T11:01:08;2.30;;;0.80;;
76351;SDS011;65179;47.786;19.138;2023-04-03T11:03:45;2.42;;;0.70;;
76351;SDS011;65179;47.786;19.138;2023-04-03T11:06:17;4.10;;;0.70;;
76351;SDS011;65179;47.786;19.138;2023-04-03T11:08:48;3.28;;;0.70;;
76351;SDS011;65179;47.786;19.138;2023-04-03T11:11:29;2.60;;;0.80;;
76351;SDS011;65179;47.786;19.138;2023-04-03T11:14:03;2.72;;;0.73;;
76351;SDS011;65179;47.786;19.138;2023-04-03T11:16:40;2.22;;;0.50;;
76351;SDS011;65179;47.786;19.138;2023-04-03T11:19:11;2.90;;;0.70;;
76351;SDS011;65179;47.786;19.138;2023-04-03T11:24:51;2.83;;;0.83;;
76351;SDS011;65179;47.786;19.138;2023-04-03T11:27:44;2.83;;;0.95;;
76351;SDS011;65179;47.786;19.138;2023-04-03T11:30:18;2.60;;;0.70;;
76351;SDS011;65179;47.786;19.138;2023-04-03T11:35:32;2.70;;;0.90;;
76351;SDS011;65179;47.786;19.138;2023-04-03T11:38:00;3.00;;;1.00;;
76351;SDS011;65179;47.786;19.138;2023-04-03T11:40:32;2.90;;;0.90;;
76351;SDS011;65179;47.786;19.138;2023-04-03T11:47:51;3.10;;;0.90;;
76351;SDS011;65179;47.786;19.138;2023-04-03T11:50:31;3.75;;;0.93;;
76351;SDS011;65179;47.786;19.138;2023-04-03T12:05:49;3.65;;;0.98;;
76351;SDS011;65179;47.786;19.138;2023-04-03T12:08:16;2.75;;;0.88;;
76351;SDS011;65179;47.786;19.138;2023-04-03T12:21:14;3.40;;;0.85;;
76351;SDS011;65179;47.786;19.138;2023-04-03T12:29:25;2.80;;;0.80;;
76351;SDS011;65179;47.786;19.138;2023-04-03T12:34:55;3.12;;;1.05;;
76351;SDS011;65179;47.786;19.138;2023-04-03T12:45:40;3.10;;;0.93;;
76351;SDS011;65179;47.786;19.138;2023-04-03T12:48:18;2.80;;;0.80;;
76351;SDS011;65179;47.786;19.138;2023-04-03T12:50:51;3.58;;;0.75;;
76351;SDS011;65179;47.786;19.138;2023-04-03T12:53:27;2.95;;;1.02;;
76351;SDS011;65179;47.786;19.138;2023-04-03T12:56:17;3.10;;;1.05;;
76351;SDS011;65179;47.786;19.138;2023-04-03T12:58:47;2.83;;;0.90;;
76351;SDS011;65179;47.786;19.138;2023-04-03T13:01:16;2.60;;;0.70;;
76351;SDS011;65179;47.786;19.138;2023-04-03T13:03:51;3.45;;;0.93;;
76351;SDS011;65179;47.786;19.138;2023-04-03T13:06:21;2.40;;;0.70;;
76351;SDS011;65179;47.786;19.138;2023-04-03T13:08:53;2.65;;;0.80;;
76351;SDS011;65179;47.786;19.138;2023-04-03T13:11:47;2.53;;;0.80;;
76351;SDS011;65179;47.786;19.138;2023-04-03T13:14:22;3.00;;;0.90;;
76351;SDS011;65179;47.786;19.138;2023-04-03T13:16:54;3.03;;;0.80;;
76351;SDS011;65179;47.786;19.138;2023-04-03T13:19:26;2.90;;;1.00;;
76351;SDS011;65179;47.786;19.138;2023-04-03T13:22:19;3.17;;;1.05;;
76351;SDS011;65179;47.786;19.138;2023-04-03T13:24:46;2.42;;;0.80;;
76351;SDS011;65179;47.786;19.138;2023-04-03T13:27:16;2.90;;;1.00;;
76351;SDS011;65179;47.786;19.138;2023-04-03T13:29:48;3.28;;;1.00;;
76351;SDS011;65179;47.786;19.138;2023-04-03T13:32:20;3.87;;;0.82;;
76351;SDS011;65179;47.786;19.138;2023-04-03T13:34:50;3.58;;;1.12;;
76351;SDS011;65179;47.786;19.138;2023-04-03T13:37:24;2.72;;;0.90;;
76351;SDS011;65179;47.786;19.138;2023-04-03T13:42:45;3.25;;;1.05;;
76351;SDS011;65179;47.786;19.138;2023-04-03T13:45:30;2.92;;;0.95;;
76351;SDS011;65179;47.786;19.138;2023-04-03T13:48:18;2.85;;;0.75;;
76351;SDS011;65179;47.786;19.138;2023-04-03T13:51:02;2.58;;;0.80;;
76351;SDS011;65179;47.786;19.138;2023-04-03T13:53:56;4.47;;;1.45;;
76351;SDS011;65179;47.786;19.138;2023-04-03T13:56:26;4.05;;;1.60;;
76351;SDS011;65179;47.786;19.138;2023-04-03T13:59:05;4.87;;;1.77;;
76351;SDS011;65179;47.786;19.138;2023-04-03T14:04:32;4.20;;;1.52;;
76351;SDS011;65179;47.786;19.138;2023-04-03T14:07:10;4.18;;;1.85;;
76351;SDS011;65179;47.786;19.138;2023-04-03T14:09:38;3.47;;;1.35;;
76351;SDS011;65179;47.786;19.138;2023-04-03T14:12:05;3.10;;;1.10;;
76351;SDS011;65179;47.786;19.138;2023-04-03T14:14:34;2.90;;;1.00;;
76351;SDS011;65179;47.786;19.138;2023-04-03T14:17:03;3.80;;;1.05;;
76351;SDS011;65179;47.786;19.138;2023-04-03T14:19:46;8.90;;;2.20;;
76351;SDS011;65179;47.786;19.138;2023-04-03T14:22:14;4.60;;;1.25;;
76351;SDS011;65179;47.786;19.138;2023-04-03T14:24:59;2.90;;;1.00;;
76351;SDS011;65179;47.786;19.138;2023-04-03T14:27:29;3.03;;;0.93;;
76351;SDS011;65179;47.786;19.138;2023-04-03T14:30:00;4.18;;;1.95;;
76351;SDS011;65179;47.786;19.138;2023-04-03T14:32:28;3.70;;;1.50;;
76351;SDS011;65179;47.786;19.138;2023-04-03T14:34:54;3.62;;;1.25;;
76351;SDS011;65179;47.786;19.138;2023-04-03T14:37:24;2.90;;;1.00;;
76351;SDS011;65179;47.786;19.138;2023-04-03T14:39:52;5.55;;;3.25;;
76351;SDS011;65179;47.786;19.138;2023-04-03T14:42:23;10.23;;;6.78;;
76351;SDS011;65179;47.786;19.138;2023-04-03T14:44:51;6.60;;;3.03;;
76351;SDS011;65179;47.786;19.138;2023-04-03T14:47:21;3.60;;;1.50;;
76351;SDS011;65179;47.786;19.138;2023-04-03T14:49:51;4.57;;;2.08;;
76351;SDS011;65179;47.786;19.138;2023-04-03T14:52:21;4.97;;;1.90;;
76351;SDS011;65179;47.786;19.138;2023-04-03T14:54:57;7.35;;;3.33;;
76351;SDS011;65179;47.786;19.138;2023-04-03T14:57:25;5.18;;;2.67;;
76351;SDS011;65179;47.786;19.138;2023-04-03T14:59:53;5.82;;;3.00;;
76351;SDS011;65179;47.786;19.138;2023-04-03T15:04:57;4.23;;;1.50;;
76351;SDS011;65179;47.786;19.138;2023-04-03T15:07:25;3.40;;;1.52;;
76351;SDS011;65179;47.786;19.138;2023-04-03T15:09:53;3.62;;;1.45;;
76351;SDS011;65179;47.786;19.138;2023-04-03T15:12:21;4.35;;;1.60;;
76351;SDS011;65179;47.786;19.138;2023-04-03T15:14:47;3.85;;;1.50;;
76351;SDS011;65179;47.786;19.138;2023-04-03T15:17:17;3.87;;;1.53;;
76351;SDS011;65179;47.786;19.138;2023-04-03T15:19:45;3.28;;;1.50;;
76351;SDS011;65179;47.786;19.138;2023-04-03T15:22:14;3.53;;;1.13;;
76351;SDS011;65179;47.786;19.138;2023-04-03T15:24:42;2.92;;;1.10;;
76351;SDS011;65179;47.786;19.138;2023-04-03T15:27:08;3.55;;;1.40;;
76351;SDS011;65179;47.786;19.138;2023-04-03T15:29:35;3.85;;;1.00;;
76351;SDS011;65179;47.786;19.138;2023-04-03T15:32:01;3.33;;;1.33;;
76351;SDS011;65179;47.786;19.138;2023-04-03T15:34:27;4.78;;;1.70;;
76351;SDS011;65179;47.786;19.138;2023-04-03T15:36:52;3.42;;;1.30;;
76351;SDS011;65179;47.786;19.138;2023-04-03T15:39:18;4.13;;;1.80;;
76351;SDS011;65179;47.786;19.138;2023-04-03T15:41:44;5.33;;;1.77;;
76351;SDS011;65179;47.786;19.138;2023-04-03T15:44:10;4.57;;;1.70;;
76351;SDS011;65179;47.786;19.138;2023-04-03T15:46:37;5.87;;;2.55;;
76351;SDS011;65179;47.786;19.138;2023-04-03T15:49:03;4.62;;;2.03;;
76351;SDS011;65179;47.786;19.138;2023-04-03T15:51:29;4.97;;;2.27;;
76351;SDS011;65179;47.786;19.138;2023-04-03T15:53:55;5.53;;;2.30;;
76351;SDS011;65179;47.786;19.138;2023-04-03T15:56:20;5.73;;;2.20;;
76351;SDS011;65179;47.786;19.138;2023-04-03T15:58:46;5.68;;;1.98;;
76351;SDS011;65179;47.786;19.138;2023-04-03T16:01:12;6.97;;;2.07;;
76351;SDS011;65179;47.786;19.138;2023-04-03T16:03:39;5.62;;;2.62;;
76351;SDS011;65179;47.786;19.138;2023-04-03T16:06:19;5.70;;;2.50;;
76351;SDS011;65179;47.786;19.138;2023-04-03T16:08:46;5.05;;;1.80;;
76351;SDS011;65179;47.786;19.138;2023-04-03T16:11:21;6.95;;;1.95;;
76351;SDS011;65179;47.786;19.138;2023-04-03T16:13:47;6.63;;;2.50;;
76351;SDS011;65179;47.786;19.138;2023-04-03T16:16:12;5.93;;;2.47;;
76351;SDS011;65179;47.786;19.138;2023-04-03T16:18:38;8.18;;;2.58;;
76351;SDS011;65179;47.786;19.138;2023-04-03T16:21:03;4.60;;;1.90;;
76351;SDS011;65179;47.786;19.138;2023-04-03T16:23:32;4.05;;;1.48;;
76351;SDS011;65179;47.786;19.138;2023-04-03T16:25:58;4.63;;;1.73;;
76351;SDS011;65179;47.786;19.138;2023-04-03T16:28:24;5.20;;;2.30;;